METAR Data
IDs: Format: Raw Decoded Include TAF

Data at: 2235 UTC 29 May 2020

METAR for:KSLB (Storm Lake Muni, IA, US)
Text:KSLB 292215Z AUTO 01010KT 10SM CLR 21/05 A3013 RMK AO2
Temperature: 21.0°C ( 70°F)
Dewpoint: 5.0°C ( 41°F) [RH = 35%]
Pressure (altimeter):30.13 inches Hg (1020.4 mb)
Winds:from the N (10 degrees) at 12 MPH (10 knots; 5.1 m/s)
Visibility:10 or more sm (16+ km)
Ceiling:at least 12,000 feet AGL
Clouds:sky clear below 12,000 feet AGL
QC Flag:automated observation with no human augmentation